createdAt,value
2023-01-29T00:01:19.073Z,102498.69
2023-01-29T00:06:20.445Z,102494.03
2023-01-29T00:11:21.786Z,102486.94
2023-01-29T00:16:23.122Z,102475.66
2023-01-29T00:21:24.423Z,102478.88
2023-01-29T00:26:26.506Z,102476.31
2023-01-29T00:31:27.986Z,102477.31
2023-01-29T00:36:29.520Z,102472.03
2023-01-29T00:41:50.982Z,102457.75
2023-01-29T00:46:52.446Z,102452.06
2023-01-29T00:52:12.379Z,102443.56
2023-01-29T00:57:13.713Z,102442.53
2023-01-29T01:02:33.802Z,102427.06
2023-01-29T01:07:35.275Z,102423.84
2023-01-29T01:12:36.622Z,102418.22
2023-01-29T01:17:38.228Z,102415.09
2023-01-29T01:22:39.659Z,102426.50
2023-01-29T01:27:41.493Z,102426.00
2023-01-29T01:32:42.963Z,102426.22
2023-01-29T01:37:44.288Z,102422.25
2023-01-29T01:42:49.728Z,102425.88
2023-01-29T01:47:52.482Z,102435.97
2023-01-29T01:52:57.266Z,102439.44
2023-01-29T01:58:06.434Z,102444.97
2023-01-29T02:03:27.821Z,102436.16
2023-01-29T02:08:54.187Z,102438.25
2023-01-29T02:13:55.487Z,102430.53
2023-01-29T02:18:57.056Z,102423.09
2023-01-29T02:23:58.479Z,102435.75
2023-01-29T02:29:22.459Z,102418.34
2023-01-29T02:34:55.074Z,102424.88
2023-01-29T02:40:09.830Z,102422.72
2023-01-29T02:45:18.131Z,102423.03
2023-01-29T02:50:25.848Z,102422.25
2023-01-29T02:55:34.286Z,102422.47
2023-01-29T03:00:38.872Z,102417.34
2023-01-29T03:05:45.717Z,102420.81
2023-01-29T03:10:52.805Z,102431.03
2023-01-29T03:16:01.573Z,102433.91
2023-01-29T03:21:28.784Z,102432.19
2023-01-29T03:26:48.534Z,102442.69
2023-01-29T03:32:05.417Z,102445.47
2023-01-29T03:37:10.830Z,102444.81
2023-01-29T03:42:18.334Z,102453.38
2023-01-29T03:47:19.635Z,102463.69
2023-01-29T03:52:40.029Z,102475.47
2023-01-29T03:57:45.530Z,102487.09
2023-01-29T04:02:46.805Z,102484.94
2023-01-29T04:07:52.182Z,102452.25
2023-01-29T04:12:56.817Z,102447.13
2023-01-29T04:17:58.307Z,102432.91
2023-01-29T04:22:59.629Z,102421.03
2023-01-29T04:28:01.627Z,102409.28
2023-01-29T04:33:09.014Z,102392.63
2023-01-29T04:38:25.647Z,102414.72
2023-01-29T04:43:30.372Z,102412.28
2023-01-29T04:48:50.017Z,102412.44
2023-01-29T04:54:06.144Z,102411.16
2023-01-29T04:59:11.483Z,102415.94
2023-01-29T05:04:14.121Z,102420.00
2023-01-29T05:09:17.293Z,102413.66
2023-01-29T05:14:19.736Z,102418.69
2023-01-29T05:19:21.031Z,102423.25
2023-01-29T05:24:23.363Z,102417.06
2023-01-29T05:29:24.776Z,102418.16
2023-01-29T05:34:26.277Z,102415.50
2023-01-29T05:39:27.629Z,102421.22
2023-01-29T05:44:28.936Z,102419.59
2023-01-29T05:49:30.246Z,102418.31
2023-01-29T05:54:31.549Z,102395.00
2023-01-29T05:59:32.903Z,102389.84
2023-01-29T06:04:34.248Z,102376.09
2023-01-29T06:09:35.552Z,102375.13
2023-01-29T06:14:36.886Z,102399.53
2023-01-29T06:19:38.261Z,102394.81
2023-01-29T06:24:39.611Z,102382.78
2023-01-29T06:29:41.092Z,102393.47
2023-01-29T06:34:42.475Z,102409.47
2023-01-29T06:39:44.121Z,102412.53
2023-01-29T06:44:45.433Z,102408.13
2023-01-29T06:49:46.743Z,102409.66
2023-01-29T06:54:48.067Z,102401.47
2023-01-29T06:59:49.475Z,102396.59
2023-01-29T07:04:50.780Z,102397.75
2023-01-29T07:09:52.088Z,102409.59
2023-01-29T07:14:53.402Z,102435.50
2023-01-29T07:19:54.714Z,102447.19
2023-01-29T07:24:56.037Z,102456.47
2023-01-29T07:29:57.347Z,102451.56
2023-01-29T07:34:58.666Z,102441.00
2023-01-29T07:39:59.980Z,102435.19
2023-01-29T07:45:01.353Z,102437.03
2023-01-29T07:50:03.085Z,102432.47
2023-01-29T07:55:04.542Z,102445.84
2023-01-29T08:00:06.117Z,102452.84
2023-01-29T08:05:07.800Z,102458.22
2023-01-29T08:10:09.703Z,102459.81
2023-01-29T08:15:11.263Z,102443.91
2023-01-29T08:20:12.592Z,102435.22
2023-01-29T08:25:14.286Z,102430.34
2023-01-29T08:30:16.942Z,102430.53
2023-01-29T08:35:19.128Z,102425.88
2023-01-29T08:40:20.813Z,102428.59
2023-01-29T08:45:22.121Z,102433.19
2023-01-29T08:50:23.424Z,102430.03
2023-01-29T08:55:25.079Z,102442.81
2023-01-29T09:00:26.432Z,102444.31
2023-01-29T09:05:28.178Z,102442.38
2023-01-29T09:10:29.505Z,102434.72
2023-01-29T09:15:31.246Z,102448.16
2023-01-29T09:20:32.905Z,102444.41
2023-01-29T09:25:34.601Z,102446.41
2023-01-29T09:30:37.785Z,102439.22
2023-01-29T09:35:43.238Z,102435.72
2023-01-29T09:40:58.533Z,102455.34
2023-01-29T09:46:21.277Z,102442.94
2023-01-29T09:51:29.143Z,102435.88
2023-01-29T09:56:30.588Z,102412.09
2023-01-29T10:01:36.963Z,102397.50
2023-01-29T10:06:38.394Z,102382.94
2023-01-29T10:11:58.399Z,102388.53
2023-01-29T10:17:10.165Z,102379.53
2023-01-29T10:22:29.709Z,102376.88
2023-01-29T10:27:38.433Z,102362.50
2023-01-29T10:32:39.734Z,102356.28
2023-01-29T10:37:42.085Z,102354.69
2023-01-29T10:42:47.410Z,102345.81
2023-01-29T10:47:54.561Z,102337.81
2023-01-29T10:52:57.288Z,102328.22
2023-01-29T10:58:22.696Z,102316.38
2023-01-29T11:03:28.237Z,102297.63
2023-01-29T11:08:39.305Z,102295.25
2023-01-29T11:13:55.667Z,102303.25
2023-01-29T11:18:58.551Z,102298.09
2023-01-29T11:24:16.960Z,102284.88
2023-01-29T11:29:37.106Z,102272.75
2023-01-29T11:34:56.210Z,102260.97
2023-01-29T11:39:57.546Z,102245.69
2023-01-29T11:44:59.436Z,102251.06
2023-01-29T11:50:01.701Z,102250.06
2023-01-29T11:55:05.300Z,102238.75
2023-01-29T12:00:07.932Z,102226.06
2023-01-29T12:05:19.610Z,102223.91
2023-01-29T12:10:36.158Z,102207.53
2023-01-29T12:15:38.464Z,102198.59
2023-01-29T12:20:46.083Z,102182.94
2023-01-29T12:25:56.540Z,102183.91
2023-01-29T12:31:00.780Z,102158.13
2023-01-29T12:36:14.292Z,102157.13
2023-01-29T12:41:22.084Z,102165.41
2023-01-29T12:46:28.085Z,102146.22
2023-01-29T12:51:38.657Z,102134.56
2023-01-29T12:56:43.652Z,102130.22
2023-01-29T13:01:56.603Z,102112.84
2023-01-29T13:07:11.296Z,102099.81
2023-01-29T13:12:15.860Z,102104.78
2023-01-29T13:17:40.294Z,102082.88
2023-01-29T13:22:43.146Z,102075.94
2023-01-29T13:27:47.551Z,102073.47
2023-01-29T13:32:52.393Z,102075.41
2023-01-29T13:37:54.847Z,102074.25
2023-01-29T13:42:59.884Z,102064.47
2023-01-29T13:48:20.017Z,102055.06
2023-01-29T13:53:25.689Z,102050.88
2023-01-29T13:58:33.043Z,102053.28
2023-01-29T14:04:02.257Z,102036.88
2023-01-29T14:09:03.650Z,102026.97
2023-01-29T14:14:24.980Z,102013.53
2023-01-29T14:19:26.301Z,102001.63
2023-01-29T14:24:30.508Z,101994.53
2023-01-29T14:29:38.040Z,101986.31
2023-01-29T14:34:47.821Z,101987.16
2023-01-29T14:39:55.038Z,101980.69
2023-01-29T14:45:07.735Z,101975.28
2023-01-29T14:50:27.676Z,101972.22
2023-01-29T14:55:37.615Z,101977.91
2023-01-29T15:00:40.758Z,101987.91
2023-01-29T15:05:42.193Z,101994.59
2023-01-29T15:11:10.919Z,101998.31
2023-01-29T15:16:25.396Z,101995.34
2023-01-29T15:21:26.721Z,102003.97
2023-01-29T15:26:28.130Z,102000.56
2023-01-29T15:31:29.733Z,102001.72
2023-01-29T15:36:31.806Z,102002.63
2023-01-29T15:41:33.112Z,101999.94
2023-01-29T15:46:36.873Z,102007.16
2023-01-29T15:51:38.604Z,102000.28
2023-01-29T15:56:43.256Z,102000.81
2023-01-29T16:01:44.850Z,102004.38
2023-01-29T16:06:47.858Z,102005.88
2023-01-29T16:11:50.407Z,102010.22
2023-01-29T16:16:52.540Z,102007.03
2023-01-29T16:21:59.905Z,102019.00
2023-01-29T16:27:07.147Z,102022.47
2023-01-29T16:32:09.005Z,102021.03
2023-01-29T16:37:19.126Z,102021.34
2023-01-29T16:42:27.830Z,102012.66
2023-01-29T16:47:32.264Z,102010.09
2023-01-29T16:52:34.361Z,102014.00
2023-01-29T16:57:35.676Z,102013.25
2023-01-29T17:02:38.456Z,102010.06
2023-01-29T17:07:44.551Z,102005.91
2023-01-29T17:12:56.807Z,102010.31
2023-01-29T17:17:58.112Z,101998.50
2023-01-29T17:22:59.449Z,102007.16
2023-01-29T17:28:01.609Z,102004.03
2023-01-29T17:33:10.883Z,101999.00
2023-01-29T17:38:24.254Z,102004.84
2023-01-29T17:43:27.144Z,102007.72
2023-01-29T17:48:29.759Z,102005.53
2023-01-29T17:53:44.855Z,102001.03
2023-01-29T17:58:47.082Z,102001.56
2023-01-29T18:03:48.532Z,102002.59
2023-01-29T18:08:49.928Z,101996.63
2023-01-29T18:13:51.472Z,101975.72
2023-01-29T18:18:53.491Z,101963.91
2023-01-29T18:23:55.523Z,101955.50
2023-01-29T18:28:56.958Z,101945.19
2023-01-29T18:33:59.156Z,101937.56
2023-01-29T18:39:00.523Z,101933.66
2023-01-29T18:44:01.912Z,101932.63
2023-01-29T18:49:03.340Z,101929.97
2023-01-29T18:54:04.825Z,101927.19
2023-01-29T18:59:06.740Z,101921.31
2023-01-29T19:04:08.421Z,101921.63
2023-01-29T19:09:09.742Z,101922.13
2023-01-29T19:14:11.249Z,101910.63
2023-01-29T19:19:12.695Z,101902.88
2023-01-29T19:24:14.703Z,101893.09
2023-01-29T19:29:16.691Z,101873.94
2023-01-29T19:34:19.311Z,101870.63
2023-01-29T19:39:20.635Z,101859.53
2023-01-29T19:44:21.941Z,101861.41
2023-01-29T19:49:23.248Z,101850.38
2023-01-29T19:54:27.681Z,101851.38
2023-01-29T19:59:29.840Z,101836.78
2023-01-29T20:04:31.178Z,101824.56
2023-01-29T20:09:33.478Z,101826.41
2023-01-29T20:14:35.057Z,101819.78
2023-01-29T20:19:36.378Z,101816.34
2023-01-29T20:24:42.862Z,101818.59
2023-01-29T20:29:45.685Z,101808.78
2023-01-29T20:34:52.280Z,101808.50
2023-01-29T20:39:53.814Z,101800.38
2023-01-29T20:44:55.131Z,101776.78
2023-01-29T20:49:56.804Z,101769.88
2023-01-29T20:55:00.298Z,101760.44
2023-01-29T21:00:02.451Z,101746.22
2023-01-29T21:05:04.049Z,101725.53
2023-01-29T21:10:05.763Z,101722.47
2023-01-29T21:15:07.414Z,101695.53
2023-01-29T21:20:10.203Z,101704.06
2023-01-29T21:25:11.947Z,101704.75
2023-01-29T21:30:13.410Z,101702.28
2023-01-29T21:35:15.379Z,101695.28
2023-01-29T21:40:17.336Z,101694.38
2023-01-29T21:45:19.170Z,101666.41
2023-01-29T21:50:20.642Z,101697.56
2023-01-29T21:55:22.166Z,101667.72
2023-01-29T22:00:23.578Z,101661.41
2023-01-29T22:05:26.490Z,101650.81
2023-01-29T22:10:28.606Z,101649.38
2023-01-29T22:15:30.098Z,101655.78
2023-01-29T22:20:31.644Z,101635.38
2023-01-29T22:25:34.070Z,101636.59
2023-01-29T22:30:35.561Z,101633.25
2023-01-29T22:35:37.077Z,101643.81
2023-01-29T22:40:38.431Z,101647.28
2023-01-29T22:45:39.732Z,101669.13
2023-01-29T22:50:41.298Z,101669.75
2023-01-29T22:55:42.608Z,101655.53
2023-01-29T23:00:43.976Z,101649.34
2023-01-29T23:05:45.290Z,101648.19
2023-01-29T23:10:46.724Z,101638.56
2023-01-29T23:15:57.327Z,101623.59
2023-01-29T23:20:58.765Z,101631.69
2023-01-29T23:26:19.726Z,101635.69
2023-01-29T23:31:21.140Z,101617.50
2023-01-29T23:36:22.513Z,101620.66
2023-01-29T23:41:23.822Z,101600.31
2023-01-29T23:46:26.976Z,101570.22
2023-01-29T23:51:28.400Z,101568.56
2023-01-29T23:56:29.785Z,101567.63
